Time;durP1;ratioP1;P1;durP2;ratioP2;P2;SDS_P1;SDS_P2;PMS_P1;PMS_P2;Temp;Humidity;BMP_temperature;BMP_pressure;BME280_temperature;BME280_humidity;BME280_pressure;Samples;Min_cycle;Max_cycle;Signal;HPM_P1;HPM_P2
2023/04/20 00:00:29;;;;;;;3.30;1.83;;;8.70;99.90;;;;;;5093279;28;20135;-78
2023/04/20 00:02:55;;;;;;;4.70;1.63;;;8.70;99.90;;;;;;5110562;28;20138;-78
2023/04/20 00:05:22;;;;;;;3.95;1.60;;;8.70;99.90;;;;;;5093298;28;20100;-79
2023/04/20 00:07:48;;;;;;;3.85;1.55;;;8.70;99.90;;;;;;5110206;28;20468;-78
2023/04/20 00:10:14;;;;;;;4.70;1.80;;;8.70;99.90;;;;;;5110486;28;20040;-78
2023/04/20 00:12:41;;;;;;;4.15;1.58;;;8.60;99.90;;;;;;5076342;28;20360;-79
2023/04/20 00:15:07;;;;;;;5.72;1.75;;;8.60;99.90;;;;;;5109996;28;20046;-79
2023/04/20 00:17:33;;;;;;;4.28;1.52;;;8.60;99.90;;;;;;5109791;28;20044;-78
2023/04/20 00:20:02;;;;;;;3.00;1.40;;;8.60;99.90;;;;;;5110099;28;20046;-78
2023/04/20 00:22:29;;;;;;;7.40;1.40;;;8.60;99.90;;;;;;5110120;28;20048;-79
2023/04/20 00:24:55;;;;;;;5.53;1.70;;;8.60;99.90;;;;;;5093355;28;20051;-78
2023/04/20 00:27:21;;;;;;;3.40;1.25;;;8.60;99.90;;;;;;5110031;28;20127;-78
2023/04/20 00:29:46;;;;;;;3.07;1.43;;;8.60;99.90;;;;;;5092577;28;20447;-77
2023/04/20 00:32:12;;;;;;;4.40;1.27;;;8.70;99.90;;;;;;5110205;28;20346;-77
2023/04/20 00:34:38;;;;;;;4.87;1.40;;;8.70;99.90;;;;;;5092568;28;20042;-77
2023/04/20 00:37:04;;;;;;;4.05;1.38;;;8.70;99.90;;;;;;5110067;28;20364;-78
2023/04/20 00:39:29;;;;;;;2.17;1.37;;;8.70;99.90;;;;;;5109457;28;20039;-78
2023/04/20 00:42:04;;;;;;;3.30;1.50;;;8.70;99.90;;;;;;5109803;28;20361;-78
2023/04/20 00:44:29;;;;;;;4.07;1.40;;;8.70;99.90;;;;;;5109304;28;20047;-77
2023/04/20 00:46:56;;;;;;;4.20;1.20;;;8.70;99.90;;;;;;5109681;28;20043;-77
2023/04/20 00:49:22;;;;;;;;;;;8.70;99.90;;;;;;5076503;28;20504;-78
2023/04/20 00:51:48;;;;;;;4.63;1.70;;;8.80;99.90;;;;;;5092525;28;19922;-77
2023/04/20 00:54:14;;;;;;;3.13;1.45;;;8.80;99.90;;;;;;5109607;28;20043;-77
2023/04/20 00:56:40;;;;;;;2.85;1.40;;;8.80;99.90;;;;;;5108725;28;20410;-77
2023/04/20 00:59:06;;;;;;;3.53;1.15;;;8.80;99.90;;;;;;5109420;28;20042;-77
2023/04/20 01:01:32;;;;;;;5.38;1.48;;;8.80;99.90;;;;;;5109177;28;20085;-77
2023/04/20 01:03:58;;;;;;;4.65;1.40;;;8.80;99.90;;;;;;5109724;28;20036;-78
2023/04/20 01:06:24;;;;;;;3.17;1.33;;;8.80;99.90;;;;;;5109553;28;20054;-77
2023/04/20 01:08:51;;;;;;;3.90;1.65;;;8.80;99.90;;;;;;5092569;28;20302;-77
2023/04/20 01:11:17;;;;;;;2.95;1.50;;;8.80;99.90;;;;;;5109184;28;20032;-77
2023/04/20 01:13:43;;;;;;;1.90;1.20;;;8.80;99.90;;;;;;5109084;28;20067;-77
2023/04/20 01:16:09;;;;;;;4.15;1.38;;;8.80;99.90;;;;;;5109178;28;20043;-78
2023/04/20 01:18:42;;;;;;;5.22;1.67;;;8.80;99.90;;;;;;5108873;28;20423;-78
2023/04/20 01:21:09;;;;;;;5.38;1.35;;;8.80;99.90;;;;;;5113766;28;20083;-78
2023/04/20 01:23:34;;;;;;;;;;;8.80;99.90;;;;;;5113506;28;20044;-77
2023/04/20 01:26:12;;;;;;;1.70;1.30;;;8.80;99.90;;;;;;5096364;28;19939;-77
2023/04/20 01:28:37;;;;;;;3.75;1.52;;;8.80;99.90;;;;;;5112959;28;20495;-77
2023/04/20 01:31:05;;;;;;;4.97;1.70;;;8.80;99.90;;;;;;5113518;28;20072;-78
2023/04/20 01:33:31;;;;;;;4.22;1.50;;;8.80;99.90;;;;;;5112952;28;20079;-77
2023/04/20 01:35:57;;;;;;;2.67;1.23;;;8.80;99.90;;;;;;5113669;28;20510;-77
2023/04/20 01:38:24;;;;;;;2.58;1.27;;;8.80;99.90;;;;;;5113580;28;20039;-78
2023/04/20 01:40:49;;;;;;;;;;;8.80;99.90;;;;;;5113569;28;20562;-77
2023/04/20 01:43:16;;;;;;;2.10;1.15;;;8.70;99.90;;;;;;5096570;28;20068;-77
2023/04/20 01:45:42;;;;;;;6.55;1.35;;;8.70;99.90;;;;;;5095876;28;20046;-78
2023/04/20 01:48:08;;;;;;;7.15;2.40;;;8.60;99.90;;;;;;5079002;28;20036;-78
2023/04/20 01:50:33;;;;;;;4.80;1.53;;;8.60;99.90;;;;;;5096015;28;20057;-77
2023/04/20 01:53:02;;;;;;;2.23;1.43;;;8.50;99.90;;;;;;5095810;28;20288;-77
2023/04/20 01:55:27;;;;;;;2.15;1.20;;;7.10;99.90;;;;;;5112598;28;20096;-77
2023/04/20 01:57:53;;;;;;;3.15;1.17;;;8.40;99.90;;;;;;5112338;28;20048;-77
2023/04/20 02:00:19;;;;;;;5.82;1.42;;;8.40;99.90;;;;;;5096070;28;20044;-77
2023/04/20 02:02:45;;;;;;;6.35;1.50;;;8.40;99.90;;;;;;5112419;28;20047;-78
2023/04/20 02:05:10;;;;;;;4.40;1.10;;;8.30;99.90;;;;;;5112727;28;20040;-77
2023/04/20 02:07:36;;;;;;;2.63;1.47;;;8.30;99.90;;;;;;5112022;28;20366;-77
2023/04/20 02:10:05;;;;;;;4.37;1.37;;;8.20;99.90;;;;;;5095617;28;20040;-77
2023/04/20 02:12:31;;;;;;;2.28;1.50;;;8.20;99.90;;;;;;5095326;28;20035;-78
2023/04/20 02:14:57;;;;;;;3.97;1.52;;;8.30;99.90;;;;;;5112637;28;20465;-77
2023/04/20 02:17:23;;;;;;;6.30;1.60;;;8.20;99.90;;;;;;5095885;28;20047;-78
2023/04/20 02:19:48;;;;;;;4.93;1.70;;;8.20;99.90;;;;;;5095360;28;20484;-77
2023/04/20 02:22:14;;;;;;;4.43;1.55;;;8.20;99.90;;;;;;5095550;28;20027;-78
2023/04/20 02:24:41;;;;;;;7.65;1.67;;;8.20;99.90;;;;;;5095400;28;20130;-77
2023/04/20 02:27:06;;;;;;;5.45;1.52;;;8.20;99.90;;;;;;5095623;28;20373;-77
2023/04/20 02:29:32;;;;;;;6.17;1.60;;;8.20;99.90;;;;;;5112046;28;20042;-77
2023/04/20 02:31:58;;;;;;;6.20;1.57;;;8.20;99.90;;;;;;5095314;28;20618;-78
2023/04/20 02:34:23;;;;;;;5.20;2.93;;;8.20;99.90;;;;;;5095241;28;20487;-77
2023/04/20 02:36:49;;;;;;;4.25;1.60;;;8.20;99.90;;;;;;5094943;28;20047;-78
2023/04/20 02:39:15;;;;;;;6.23;1.70;;;8.20;99.90;;;;;;5112276;28;20048;-78
2023/04/20 02:41:40;;;;;;;4.90;1.60;;;8.20;99.90;;;;;;5094653;28;20032;-77
2023/04/20 02:44:06;;;;;;;4.53;1.80;;;8.20;99.90;;;;;;5095042;28;20082;-78
2023/04/20 02:46:32;;;;;;;5.87;2.30;;;8.20;99.90;;;;;;5111892;28;20042;-78
2023/04/20 02:48:57;;;;;;;5.33;2.00;;;8.20;99.90;;;;;;5111875;28;20385;-78
2023/04/20 02:51:23;;;;;;;6.37;1.67;;;8.30;99.90;;;;;;5078019;28;20484;-78
2023/04/20 02:53:49;;;;;;;3.77;1.47;;;8.30;99.90;;;;;;5111425;28;20626;-77
2023/04/20 02:56:16;;;;;;;5.75;1.98;;;8.30;99.90;;;;;;5078416;28;20113;-78
2023/04/20 02:58:41;;;;;;;2.83;1.30;;;8.30;99.90;;;;;;5094217;28;20073;-78
2023/04/20 03:01:07;;;;;;;3.65;1.50;;;8.40;99.90;;;;;;5111739;28;20055;-77
2023/04/20 03:03:33;;;;;;;4.70;1.58;;;8.40;99.90;;;;;;5111546;28;20043;-77
2023/04/20 03:05:59;;;;;;;6.77;1.73;;;8.40;99.90;;;;;;5111553;28;20181;-77
2023/04/20 03:08:25;;;;;;;3.17;1.58;;;8.50;99.90;;;;;;5094587;28;20392;-78
2023/04/20 03:10:50;;;;;;;3.67;1.42;;;8.50;99.90;;;;;;5111132;28;20494;-77
2023/04/20 03:13:16;;;;;;;4.23;2.23;;;8.50;99.90;;;;;;5094495;28;20388;-78
2023/04/20 03:15:43;;;;;;;5.57;1.60;;;8.60;99.90;;;;;;5094391;28;20044;-78
2023/04/20 03:18:08;;;;;;;3.63;1.40;;;8.60;99.90;;;;;;5111347;28;20047;-77
2023/04/20 03:20:34;;;;;;;3.80;1.50;;;8.60;99.90;;;;;;5111184;28;20039;-77
2023/04/20 03:23:00;;;;;;;3.30;1.40;;;8.70;99.90;;;;;;5111609;28;20050;-77
2023/04/20 03:25:26;;;;;;;6.90;1.70;;;8.70;99.90;;;;;;5111666;28;20039;-78
2023/04/20 03:27:52;;;;;;;3.45;1.60;;;8.70;99.90;;;;;;5110938;28;20180;-77
2023/04/20 03:30:18;;;;;;;4.65;1.75;;;8.70;99.90;;;;;;5111496;28;20039;-77
2023/04/20 03:32:44;;;;;;;7.35;1.40;;;8.70;99.90;;;;;;5110547;28;20036;-78
2023/04/20 03:35:10;;;;;;;5.57;2.10;;;8.70;99.90;;;;;;5094182;28;20032;-78
2023/04/20 03:37:38;;;;;;;5.03;1.20;;;8.70;99.90;;;;;;5110329;28;20092;-78
2023/04/20 03:40:07;;;;;;;2.42;1.33;;;8.70;99.90;;;;;;5111009;28;20036;-77
2023/04/20 03:42:33;;;;;;;3.15;1.60;;;8.70;99.90;;;;;;5110694;28;20518;-77
2023/04/20 03:44:58;;;;;;;5.43;1.53;;;8.70;99.90;;;;;;5093590;28;20127;-78
2023/04/20 03:47:24;;;;;;;3.60;2.40;;;8.70;99.90;;;;;;5110658;28;20036;-77
2023/04/20 03:49:50;;;;;;;5.03;1.48;;;8.70;99.90;;;;;;5110287;28;20846;-77
2023/04/20 03:52:15;;;;;;;5.37;1.37;;;8.70;99.90;;;;;;5110686;28;20503;-77
2023/04/20 03:54:41;;;;;;;4.83;1.40;;;8.70;99.90;;;;;;5093280;28;20036;-78
2023/04/20 03:57:07;;;;;;;4.18;1.45;;;8.70;99.90;;;;;;5110467;28;20289;-77
2023/04/20 03:59:32;;;;;;;10.50;1.60;;;8.70;99.90;;;;;;5094122;28;20054;-77
2023/04/20 04:01:59;;;;;;;5.47;1.53;;;8.80;99.90;;;;;;5110025;28;20039;-77
2023/04/20 04:04:25;;;;;;;;;;;8.70;99.90;;;;;;5093821;28;20082;-78
2023/04/20 04:06:50;;;;;;;3.72;1.42;;;8.80;99.90;;;;;;5109878;28;19958;-77
2023/04/20 04:09:16;;;;;;;3.63;1.30;;;8.70;99.90;;;;;;5093714;28;20077;-77
2023/04/20 04:11:42;;;;;;;3.63;1.43;;;8.70;99.90;;;;;;5109906;28;20046;-77
2023/04/20 04:14:07;;;;;;;5.50;1.42;;;8.70;99.90;;;;;;5110256;28;20324;-77
2023/04/20 04:16:33;;;;;;;3.20;1.48;;;8.70;99.90;;;;;;5110485;28;20040;-78
2023/04/20 04:18:59;;;;;;;4.53;1.50;;;8.70;99.90;;;;;;5110153;28;20047;-77
2023/04/20 04:21:26;;;;;;;4.35;1.73;;;9.40;99.90;;;;;;5110015;28;20408;-77
2023/04/20 04:23:52;;;;;;;2.88;1.40;;;8.60;99.90;;;;;;5092786;28;20046;-77
2023/04/20 04:26:20;;;;;;;2.53;1.10;;;8.60;99.90;;;;;;5110018;28;20043;-78
2023/04/20 04:28:46;;;;;;;5.32;1.95;;;8.50;99.90;;;;;;5109521;28;20044;-77
2023/04/20 04:31:12;;;;;;;4.13;1.58;;;8.50;99.90;;;;;;5110071;28;20123;-78
2023/04/20 04:33:37;;;;;;;4.03;1.25;;;8.50;99.90;;;;;;5109832;28;20270;-77
2023/04/20 04:36:04;;;;;;;4.30;1.43;;;8.50;99.90;;;;;;5110208;28;20076;-78
2023/04/20 04:38:32;;;;;;;3.75;1.73;;;8.40;99.90;;;;;;5109692;28;20285;-77
2023/04/20 04:40:58;;;;;;;4.50;1.60;;;8.40;99.90;;;;;;5109810;28;20048;-78
2023/04/20 04:43:24;;;;;;;2.17;1.38;;;8.40;99.90;;;;;;5109748;28;20077;-78
2023/04/20 04:45:50;;;;;;;4.22;1.52;;;8.40;99.90;;;;;;5092723;28;20044;-77
2023/04/20 04:48:15;;;;;;;3.53;1.38;;;8.40;99.90;;;;;;5092539;28;20445;-77
2023/04/20 04:50:41;;;;;;;5.60;1.70;;;8.40;99.90;;;;;;5109635;28;20405;-78
2023/04/20 04:53:07;;;;;;;2.27;1.30;;;8.40;99.90;;;;;;5076086;28;20625;-77
2023/04/20 04:55:33;;;;;;;5.65;1.50;;;8.40;99.90;;;;;;5109211;28;20035;-78
2023/04/20 04:58:00;;;;;;;5.43;1.58;;;8.40;99.90;;;;;;5109334;28;20110;-77
2023/04/20 05:00:26;;;;;;;2.63;1.50;;;8.30;99.90;;;;;;5092715;28;20043;-77
2023/04/20 05:02:52;;;;;;;4.45;1.40;;;8.30;99.90;;;;;;5109406;28;20468;-77
2023/04/20 05:05:20;;;;;;;5.45;1.42;;;8.30;99.90;;;;;;5092951;28;20478;-77
2023/04/20 05:07:46;;;;;;;5.38;1.60;;;8.40;99.90;;;;;;5109164;28;20039;-77
2023/04/20 05:10:12;;;;;;;5.20;1.30;;;8.20;99.90;;;;;;5109433;28;20050;-78
2023/04/20 05:12:38;;;;;;;4.75;1.70;;;8.20;99.90;;;;;;5092839;28;20036;-77
2023/04/20 05:15:05;;;;;;;4.38;1.73;;;8.10;99.90;;;;;;5109411;28;20519;-78
2023/04/20 05:17:31;;;;;;;2.75;1.40;;;8.10;99.90;;;;;;5092466;28;20509;-78
2023/04/20 05:19:56;;;;;;;3.97;1.65;;;8.20;99.90;;;;;;5075059;28;20044;-77
2023/04/20 05:22:22;;;;;;;5.47;1.98;;;8.10;99.90;;;;;;5109377;28;20039;-77
2023/04/20 05:24:48;;;;;;;3.80;1.40;;;8.10;99.90;;;;;;5092057;28;20047;-77
2023/04/20 05:27:13;;;;;;;2.57;1.50;;;8.00;99.90;;;;;;5092356;28;20384;-78
2023/04/20 05:29:39;;;;;;;3.33;1.50;;;8.00;99.90;;;;;;5109184;28;20503;-78
2023/04/20 05:32:05;;;;;;;7.30;1.73;;;8.10;99.90;;;;;;5091864;28;20320;-78
2023/04/20 05:34:31;;;;;;;3.80;1.75;;;8.10;99.90;;;;;;5075856;28;20036;-78
2023/04/20 05:36:58;;;;;;;4.63;1.48;;;8.00;99.90;;;;;;5108854;28;20032;-78
2023/04/20 05:39:23;;;;;;;3.65;1.55;;;8.00;99.90;;;;;;5109214;28;20422;-77
2023/04/20 05:41:49;;;;;;;5.38;1.52;;;8.00;99.90;;;;;;5091916;28;20096;-77
2023/04/20 05:44:15;;;;;;;4.80;1.60;;;8.00;99.90;;;;;;5092027;28;20140;-78
2023/04/20 05:46:41;;;;;;;3.13;1.50;;;8.70;99.90;;;;;;5092193;28;20031;-78
2023/04/20 05:49:07;;;;;;;3.13;1.50;;;7.90;99.90;;;;;;5091892;28;20044;-78
2023/04/20 05:51:33;;;;;;;4.87;1.63;;;7.90;99.90;;;;;;5092377;28;20300;-78
2023/04/20 05:54:02;;;;;;;3.28;1.38;;;7.90;99.90;;;;;;5091740;28;20046;-77
2023/04/20 05:56:28;;;;;;;2.42;1.52;;;7.90;99.90;;;;;;5092210;28;20367;-77
2023/04/20 05:58:55;;;;;;;4.37;1.40;;;7.90;99.90;;;;;;5091403;28;20139;-78
2023/04/20 06:01:20;;;;;;;4.10;1.48;;;8.00;99.90;;;;;;5092160;28;20605;-78
2023/04/20 06:03:47;;;;;;;6.15;1.60;;;7.90;99.90;;;;;;5108794;28;20031;-77
2023/04/20 06:06:13;;;;;;;6.20;1.55;;;7.90;99.90;;;;;;5111352;28;20036;-77
2023/04/20 06:08:39;;;;;;;3.78;1.70;;;8.00;99.90;;;;;;5112699;28;20050;-78
2023/04/20 06:11:05;;;;;;;5.97;1.60;;;7.90;99.90;;;;;;5112612;28;20063;-77
2023/04/20 06:13:31;;;;;;;3.28;1.58;;;7.90;99.90;;;;;;5095788;28;20043;-78
2023/04/20 06:15:57;;;;;;;7.55;2.63;;;7.90;99.90;;;;;;5095271;28;20042;-78
2023/04/20 06:18:23;;;;;;;5.32;1.60;;;8.10;99.90;;;;;;5095514;28;20440;-79
2023/04/20 06:20:48;;;;;;;3.08;1.50;;;7.90;99.90;;;;;;5112218;28;20118;-79
2023/04/20 06:23:14;;;;;;;4.57;1.83;;;7.90;99.90;;;;;;5112676;28;20047;-78
2023/04/20 06:25:40;;;;;;;4.10;1.80;;;7.80;99.90;;;;;;5095472;28;20047;-78
2023/04/20 06:28:06;;;;;;;6.13;1.73;;;7.80;99.90;;;;;;5095265;28;20048;-78
2023/04/20 06:30:33;;;;;;;4.80;1.73;;;7.70;99.90;;;;;;5112686;28;20373;-78
2023/04/20 06:32:59;;;;;;;;;;;7.60;99.90;;;;;;5112362;28;20074;-78
2023/04/20 06:35:25;;;;;;;5.30;1.73;;;7.60;99.90;;;;;;5112364;28;19920;-78
2023/04/20 06:37:51;;;;;;;4.30;1.52;;;7.50;99.90;;;;;;5111914;28;20391;-78
2023/04/20 06:40:17;;;;;;;3.08;1.67;;;7.50;99.90;;;;;;5112103;28;20047;-78
2023/04/20 06:42:44;;;;;;;7.95;3.72;;;7.50;99.90;;;;;;5078961;28;20588;-78
2023/04/20 06:45:10;;;;;;;5.00;1.75;;;7.50;99.90;;;;;;5095021;28;20071;-78
2023/04/20 06:47:36;;;;;;;3.28;1.85;;;7.50;99.90;;;;;;5112009;28;20044;-78
2023/04/20 06:50:08;;;;;;;3.33;1.63;;;7.60;99.90;;;;;;5111954;28;20536;-78
2023/04/20 06:52:37;;;;;;;5.82;1.65;;;7.50;99.90;;;;;;5112008;28;20196;-79
2023/04/20 10:09:07;;;;;;;7.32;3.63;;;8.80;99.90;;;;;;5111981;27;20384;-79
2023/04/20 10:11:41;;;;;;;6.65;3.20;;;8.80;99.90;;;;;;5076623;28;20126;-80
2023/04/20 10:14:25;;;;;;;6.35;3.20;;;8.70;99.90;;;;;;5094179;28;20066;-80
2023/04/20 10:17:06;;;;;;;6.20;3.22;;;8.80;99.90;;;;;;5092875;28;20044;-78
2023/04/20 10:19:41;;;;;;;6.78;3.20;;;8.80;99.90;;;;;;5092636;28;20051;-79
2023/04/20 10:22:09;;;;;;;5.75;3.13;;;8.70;99.90;;;;;;5075324;28;20119;-79
2023/04/20 10:24:37;;;;;;;6.35;2.97;;;8.70;99.90;;;;;;5092563;28;20038;-79
2023/04/20 10:27:03;;;;;;;6.72;3.20;;;8.70;99.90;;;;;;5092482;28;20044;-79
2023/04/20 10:29:32;;;;;;;5.88;3.30;;;8.70;99.90;;;;;;5092092;28;20047;-78
2023/04/20 10:31:58;;;;;;;7.35;3.65;;;8.60;99.90;;;;;;5091412;28;20044;-79
2023/04/20 10:34:36;;;;;;;6.40;3.40;;;8.60;99.90;;;;;;5074785;28;20093;-78
2023/04/20 10:37:12;;;;;;;4.82;3.08;;;8.50;99.90;;;;;;5074141;28;20301;-79
2023/04/20 10:39:45;;;;;;;8.98;4.07;;;8.50;99.90;;;;;;5074396;28;20085;-79
2023/04/20 10:42:11;;;;;;;8.40;3.90;;;8.50;99.90;;;;;;5091575;28;20040;-79
2023/04/20 10:44:50;;;;;;;5.45;3.30;;;8.50;99.90;;;;;;5074171;28;20122;-79
2023/04/20 10:47:17;;;;;;;6.30;3.67;;;8.40;99.90;;;;;;5074831;28;20412;-79
2023/04/20 10:49:43;;;;;;;8.20;3.60;;;8.40;99.90;;;;;;5074815;28;20139;-79
2023/04/20 10:52:09;;;;;;;;;;;8.50;99.90;;;;;;5091949;28;20496;-80
2023/04/20 10:54:39;;;;;;;5.00;3.58;;;8.50;99.90;;;;;;5091172;28;19965;-79
2023/04/20 10:57:05;;;;;;;7.03;3.70;;;8.50;99.90;;;;;;5091127;28;20047;-79
2023/04/20 10:59:33;;;;;;;6.70;3.70;;;8.60;99.90;;;;;;5091491;28;20036;-79
2023/04/20 11:02:00;;;;;;;6.35;3.78;;;8.60;99.90;;;;;;5091182;28;20080;-79
2023/04/20 11:04:34;;;;;;;49.75;25.80;;;8.70;99.90;;;;;;5091642;28;20069;-79
2023/04/20 11:07:07;;;;;;;7.60;5.25;;;8.70;99.90;;;;;;5090677;28;20059;-79
2023/04/20 11:09:34;;;;;;;42.22;30.38;;;8.70;99.90;;;;;;5079869;28;20048;-79
2023/04/20 11:12:02;;;;;;;6.22;4.10;;;8.70;99.90;;;;;;5077429;28;20039;-78
2023/04/20 11:14:29;;;;;;;8.65;4.53;;;8.70;99.90;;;;;;5077579;28;20044;-79
2023/04/20 11:16:55;;;;;;;7.53;4.40;;;8.70;99.90;;;;;;5077434;28;20498;-79
2023/04/20 11:19:29;;;;;;;9.70;4.43;;;8.80;99.90;;;;;;5077115;28;20074;-80
2023/04/20 11:21:55;;;;;;;7.43;4.13;;;8.80;99.90;;;;;;5078304;28;20047;-79
2023/04/20 11:24:23;;;;;;;6.60;4.20;;;8.80;99.90;;;;;;5077474;28;20039;-79
2023/04/20 11:26:50;;;;;;;8.27;4.60;;;8.90;99.90;;;;;;5060742;28;20048;-79
2023/04/20 11:29:32;;;;;;;7.13;4.22;;;9.00;99.90;;;;;;5076584;28;20058;-78
2023/04/20 11:32:00;;;;;;;7.28;4.85;;;9.00;99.90;;;;;;5077432;28;20079;-79
2023/04/20 11:34:26;;;;;;;6.30;4.60;;;9.00;99.90;;;;;;5060172;28;20039;-80
2023/04/20 11:36:55;;;;;;;8.82;4.97;;;8.90;99.90;;;;;;5059895;28;20110;-80
2023/04/20 11:39:28;;;;;;;7.13;4.45;;;8.70;99.90;;;;;;5076505;28;20043;-79
2023/04/20 11:41:56;;;;;;;8.05;4.93;;;8.80;99.90;;;;;;5076590;28;20043;-79
2023/04/20 11:44:23;;;;;;;9.68;4.20;;;8.70;99.90;;;;;;5060066;28;20039;-79
2023/04/20 11:46:51;;;;;;;6.88;4.50;;;8.70;99.90;;;;;;5076493;28;20040;-79
2023/04/20 11:49:18;;;;;;;7.93;4.75;;;8.70;99.90;;;;;;5077077;28;20391;-78
2023/04/20 11:51:45;;;;;;;11.20;5.85;;;8.70;99.90;;;;;;5076465;28;20056;-79
2023/04/20 11:54:11;;;;;;;8.63;4.82;;;8.80;99.90;;;;;;5059821;28;20048;-79
2023/04/20 11:56:37;;;;;;;9.32;4.88;;;8.90;99.90;;;;;;5076428;28;20124;-79
2023/04/20 11:59:03;;;;;;;11.15;5.32;;;9.00;99.90;;;;;;5076531;28;20131;-78
2023/04/20 12:01:30;;;;;;;10.40;5.63;;;9.10;99.90;;;;;;5059943;28;20036;-79
2023/04/20 12:03:55;;;;;;;7.50;5.00;;;9.20;99.90;;;;;;5059568;28;20093;-79
2023/04/20 12:06:21;;;;;;;10.68;6.10;;;9.30;99.90;;;;;;5076339;28;20399;-79
2023/04/20 12:08:47;;;;;;;8.20;5.32;;;9.50;99.90;;;;;;5059404;28;20059;-79
2023/04/20 12:11:15;;;;;;;11.47;7.00;;;9.50;99.90;;;;;;5076790;28;20047;-80
2023/04/20 12:13:42;;;;;;;6.80;4.38;;;9.60;99.90;;;;;;5077651;28;20694;-80
2023/04/20 12:16:07;;;;;;;9.43;5.40;;;9.50;99.90;;;;;;5110695;28;20044;-79
2023/04/20 12:18:33;;;;;;;9.70;5.65;;;9.50;99.90;;;;;;5077284;28;20040;-80
2023/04/20 12:20:59;;;;;;;9.48;5.82;;;9.50;99.90;;;;;;5060302;28;20388;-80
2023/04/20 12:23:26;;;;;;;8.45;5.85;;;9.70;99.90;;;;;;5059914;28;20036;-79
2023/04/20 12:25:51;;;;;;;9.05;6.03;;;9.70;99.90;;;;;;5078054;28;20118;-79
2023/04/20 12:28:17;;;;;;;9.70;6.27;;;9.80;99.90;;;;;;5079612;28;20043;-80
2023/04/20 12:30:43;;;;;;;10.43;5.70;;;10.00;99.90;;;;;;5079565;28;20073;-80
2023/04/20 12:33:09;;;;;;;10.27;6.83;;;10.00;99.90;;;;;;5062207;28;20051;-79
2023/04/20 12:35:35;;;;;;;8.70;5.65;;;10.20;99.90;;;;;;5063265;28;20310;-79
2023/04/20 12:38:01;;;;;;;10.50;5.35;;;10.30;99.90;;;;;;5063741;28;20039;-79
2023/04/20 12:40:26;;;;;;;8.93;5.80;;;10.60;99.90;;;;;;5084546;28;20070;-79
2023/04/20 12:42:52;;;;;;;10.13;6.03;;;10.70;99.90;;;;;;5106487;28;20101;-79
2023/04/20 12:45:18;;;;;;;10.40;6.50;;;11.00;99.90;;;;;;5091259;28;20542;-80
2023/04/20 12:47:44;;;;;;;7.75;6.13;;;11.30;99.90;;;;;;5089950;28;20286;-80
2023/04/20 12:50:10;;;;;;;8.93;5.00;;;11.50;99.90;;;;;;5088486;28;20051;-80
2023/04/20 12:52:36;;;;;;;8.68;5.47;;;12.00;99.90;;;;;;5104311;28;20044;-80
2023/04/20 12:55:02;;;;;;;8.38;5.22;;;12.10;99.90;;;;;;5122515;28;20496;-80
2023/04/20 12:57:28;;;;;;;9.85;4.80;;;12.00;99.90;;;;;;5090122;28;20515;-80
2023/04/20 12:59:55;;;;;;;6.47;4.93;;;11.60;99.90;;;;;;5072404;28;20040;-81
2023/04/20 13:02:21;;;;;;;9.27;5.03;;;11.40;99.90;;;;;;5088882;28;20036;-80
2023/04/20 13:04:46;;;;;;;8.52;5.22;;;11.40;99.90;;;;;;5068333;28;20066;-80
2023/04/20 13:07:12;;;;;;;7.00;4.80;;;11.40;99.90;;;;;;5067893;28;20131;-79
2023/04/20 13:09:38;;;;;;;8.57;4.90;;;11.50;99.90;;;;;;5085476;28;20085;-81
2023/04/20 13:12:04;;;;;;;8.00;5.47;;;11.50;99.90;;;;;;5104882;28;20107;-81
2023/04/20 13:14:31;;;;;;;9.73;5.15;;;11.70;99.90;;;;;;5091491;28;20044;-80
2023/04/20 13:17:00;;;;;;;9.60;5.43;;;12.10;99.90;;;;;;5091020;28;20036;-81
2023/04/20 13:19:29;;;;;;;9.07;5.13;;;12.30;99.90;;;;;;5087208;28;20051;-80
2023/04/20 13:21:55;;;;;;;7.47;4.60;;;12.40;99.90;;;;;;5083314;28;20471;-80
2023/04/20 13:24:21;;;;;;;7.82;4.97;;;12.80;99.90;;;;;;5064361;28;20044;-81
2023/04/20 13:26:47;;;;;;;5.85;4.70;;;13.10;99.90;;;;;;5081340;28;20124;-80
2023/04/20 13:29:12;;;;;;;8.43;5.05;;;12.80;99.90;;;;;;5066332;28;20100;-81
2023/04/20 13:31:39;;;;;;;6.32;4.60;;;12.90;99.90;;;;;;5080373;28;20058;-81
2023/04/20 13:34:05;;;;;;;7.88;4.70;;;13.00;99.90;;;;;;5078934;28;20083;-80
2023/04/20 13:36:32;;;;;;;8.70;4.50;;;13.30;99.90;;;;;;5061667;28;20051;-81
2023/04/20 13:38:57;;;;;;;;;;;13.60;99.90;;;;;;5078272;28;20198;-80
2023/04/20 13:41:23;;;;;;;9.18;5.50;;;13.70;99.90;;;;;;5061982;28;19977;-81
2023/04/20 13:43:49;;;;;;;7.53;4.57;;;13.20;99.90;;;;;;5061454;28;20040;-82
2023/04/20 13:46:15;;;;;;;6.55;4.30;;;12.80;99.90;;;;;;5065447;28;20032;-82
2023/04/20 13:48:41;;;;;;;8.27;5.05;;;12.70;99.90;;;;;;5080451;28;20069;-82
2023/04/20 13:51:06;;;;;;;7.90;5.25;;;12.60;99.90;;;;;;5048256;28;20500;-81
2023/04/20 13:53:32;;;;;;;6.53;5.05;;;12.60;99.90;;;;;;5082279;28;20100;-81
2023/04/20 13:55:58;;;;;;;8.63;5.75;;;12.50;99.90;;;;;;5066662;28;20040;-81
2023/04/20 13:58:27;;;;;;;10.05;4.72;;;12.50;99.90;;;;;;5067987;28;20075;-81
2023/04/20 14:00:53;;;;;;;7.28;5.25;;;12.40;99.90;;;;;;5087622;28;20283;-81
2023/04/20 14:03:19;;;;;;;8.00;5.05;;;12.20;99.90;;;;;;5081859;28;20032;-81
2023/04/20 14:05:45;;;;;;;8.90;4.63;;;12.20;99.90;;;;;;5065328;28;20096;-82
2023/04/20 14:08:12;;;;;;;8.73;5.15;;;12.30;99.90;;;;;;5083080;28;20112;-81
2023/04/20 14:10:39;;;;;;;6.53;4.45;;;12.20;99.90;;;;;;5098977;28;20036;-82
2023/04/20 14:13:05;;;;;;;8.70;5.80;;;12.30;99.90;;;;;;5063721;28;20472;-81
2023/04/20 14:15:31;;;;;;;;;;;12.30;99.90;;;;;;5082389;28;20044;-81
2023/04/20 14:17:59;;;;;;;8.40;5.43;;;12.50;99.90;;;;;;5081811;28;20011;-81
2023/04/20 14:20:25;;;;;;;8.32;5.30;;;12.40;99.90;;;;;;5066369;28;20044;-82
2023/04/20 14:22:51;;;;;;;7.70;5.28;;;12.40;99.90;;;;;;5081703;28;20044;-82
2023/04/20 14:25:17;;;;;;;8.32;5.47;;;12.50;99.90;;;;;;5080568;28;20039;-82
2023/04/20 14:27:43;;;;;;;8.68;5.18;;;12.60;99.90;;;;;;5080487;28;20130;-81
2023/04/20 14:30:09;;;;;;;6.88;4.93;;;12.80;99.90;;;;;;5082626;28;20040;-82
2023/04/20 14:32:35;;;;;;;8.15;5.10;;;12.70;99.90;;;;;;5085760;28;20044;-81
2023/04/20 14:35:03;;;;;;;10.15;5.55;;;12.60;99.90;;;;;;5082554;28;20385;-82
2023/04/20 14:37:28;;;;;;;9.93;5.78;;;12.60;99.90;;;;;;5082302;28;20048;-82
2023/04/20 14:39:54;;;;;;;9.68;5.13;;;12.50;99.90;;;;;;5079269;28;20055;-82
2023/04/20 14:42:20;;;;;;;7.78;5.15;;;12.40;99.90;;;;;;5079491;28;20040;-81
2023/04/20 14:44:47;;;;;;;8.85;5.25;;;12.50;99.90;;;;;;5081606;28;20036;-81
2023/04/20 14:47:14;;;;;;;8.68;5.00;;;12.60;99.90;;;;;;5068580;28;20040;-82
2023/04/20 14:49:40;;;;;;;11.68;5.30;;;12.70;99.90;;;;;;5084004;28;20040;-81
2023/04/20 14:52:06;;;;;;;;;;;12.80;99.90;;;;;;5068955;28;20058;-81
2023/04/20 14:54:32;;;;;;;7.63;5.05;;;12.80;99.90;;;;;;5085897;28;19916;-80
2023/04/20 14:56:57;;;;;;;8.57;5.32;;;12.80;99.90;;;;;;5084802;28;20040;-82
2023/04/20 14:59:25;;;;;;;7.20;4.97;;;12.80;99.90;;;;;;5085239;28;20537;-81
2023/04/20 15:01:50;;;;;;;8.02;5.57;;;12.70;99.90;;;;;;5086012;28;20051;-81
2023/04/20 15:04:16;;;;;;;8.52;5.65;;;12.60;99.90;;;;;;5052879;28;20426;-81
2023/04/20 15:06:43;;;;;;;7.75;5.03;;;12.40;99.90;;;;;;5085409;28;20036;-81
2023/04/20 15:09:09;;;;;;;9.73;5.63;;;12.50;99.90;;;;;;5083615;28;20064;-81
2023/04/20 15:11:35;;;;;;;8.85;5.28;;;12.50;99.90;;;;;;5087067;28;20067;-81
2023/04/20 15:14:00;;;;;;;9.47;5.40;;;12.40;99.90;;;;;;5085412;28;20039;-80
2023/04/20 15:16:26;;;;;;;7.35;5.40;;;12.30;99.90;;;;;;5087817;28;20290;-80
2023/04/20 15:18:53;;;;;;;9.57;5.50;;;12.20;99.90;;;;;;5086010;28;20109;-81
2023/04/20 15:21:20;;;;;;;6.68;4.75;;;12.10;99.90;;;;;;5083276;28;20047;-80
2023/04/20 15:23:46;;;;;;;7.68;5.03;;;12.20;99.90;;;;;;5064986;28;20036;-81
2023/04/20 15:26:12;;;;;;;7.63;5.50;;;12.20;99.90;;;;;;5082310;28;20094;-81
2023/04/20 15:28:37;;;;;;;9.60;5.93;;;12.30;99.90;;;;;;5066407;28;20296;-81
2023/04/20 15:31:06;;;;;;;7.40;5.17;;;12.30;99.90;;;;;;5081920;28;20289;-81
2023/04/20 15:33:32;;;;;;;7.70;5.28;;;12.30;99.90;;;;;;5084886;28;20040;-81
2023/04/20 15:35:58;;;;;;;8.95;5.40;;;12.40;99.90;;;;;;5064599;28;20047;-81
2023/04/20 15:38:24;;;;;;;8.30;5.50;;;12.40;99.90;;;;;;5084773;28;20059;-81
2023/04/20 15:40:52;;;;;;;8.52;5.70;;;12.50;99.90;;;;;;5084708;28;20043;-80
2023/04/20 15:43:18;;;;;;;8.90;5.60;;;12.60;99.90;;;;;;5086528;28;20043;-81
2023/04/20 15:45:44;;;;;;;8.50;5.47;;;12.60;99.90;;;;;;5088287;28;20071;-80
2023/04/20 15:48:10;;;;;;;8.75;5.25;;;12.50;99.90;;;;;;5088573;28;20083;-81
2023/04/20 15:50:36;;;;;;;8.13;5.63;;;12.40;99.90;;;;;;5086948;28;20044;-81
2023/04/20 15:53:02;;;;;;;8.43;5.28;;;12.50;99.90;;;;;;5105813;28;20036;-81
2023/04/20 15:55:33;;;;;;;6.78;4.90;;;12.60;99.90;;;;;;5055086;28;20044;-80
2023/04/20 15:57:59;;;;;;;7.93;5.93;;;12.60;99.90;;;;;;5090089;28;20088;-80
2023/04/20 16:00:25;;;;;;;;;;;12.60;99.90;;;;;;5093260;28;20047;-81
2023/04/20 16:02:52;;;;;;;8.05;6.03;;;12.50;99.90;;;;;;5093455;28;19970;-81
2023/04/20 16:05:19;;;;;;;10.98;6.28;;;12.40;99.90;;;;;;5127769;28;20044;-81